createdAt,value
2023-04-15T11:51:33.734Z,3.35
2023-04-15T11:56:36.951Z,2.65
2023-04-15T12:01:40.104Z,3.93
2023-04-15T12:06:42.705Z,2.60
2023-04-15T12:11:49.948Z,3.80
2023-04-15T12:17:14.114Z,3.13
2023-04-15T12:22:18.000Z,2.33
2023-04-15T12:27:21.445Z,3.15
2023-04-15T12:32:24.063Z,2.47
2023-04-15T12:37:26.625Z,4.33
2023-04-15T12:42:29.308Z,2.25
2023-04-15T12:47:34.514Z,2.45
2023-04-15T12:52:37.635Z,2.93
2023-04-15T12:57:40.215Z,2.35
2023-04-15T13:02:44.678Z,3.97
2023-04-15T13:07:49.977Z,3.23
2023-04-15T13:12:53.924Z,3.15
2023-04-15T13:17:56.945Z,3.55
2023-04-15T13:22:59.495Z,2.73
2023-04-15T13:28:02.082Z,3.00
2023-04-15T13:33:05.045Z,2.80
2023-04-15T13:38:07.664Z,2.60
2023-04-15T13:43:10.513Z,2.43
2023-04-15T13:48:13.084Z,2.67
2023-04-15T13:53:16.314Z,2.40
2023-04-15T13:58:18.795Z,2.50
2023-04-15T14:03:21.515Z,3.00
2023-04-15T14:08:26.056Z,2.40
2023-04-15T14:13:28.903Z,2.47
2023-04-15T14:18:31.543Z,2.60
2023-04-15T14:23:34.020Z,3.95
2023-04-15T14:28:39.692Z,4.13
2023-04-15T14:33:42.475Z,3.20
2023-04-15T14:38:45.446Z,2.85
2023-04-15T14:43:49.165Z,1.80
2023-04-15T14:48:51.965Z,1.80
2023-04-15T14:53:54.598Z,1.70
2023-04-15T14:58:57.107Z,1.60
2023-04-15T15:04:01.466Z,1.80
2023-04-15T15:09:05.062Z,1.52
2023-04-15T15:14:07.724Z,1.30
2023-04-15T15:19:10.370Z,1.17
2023-04-15T15:24:16.552Z,1.38
2023-04-15T15:29:19.023Z,1.20
2023-04-15T15:34:21.477Z,1.30
2023-04-15T15:39:25.181Z,1.00
2023-04-15T15:44:28.056Z,1.70
2023-04-15T15:49:30.730Z,1.20
2023-04-15T15:54:33.568Z,1.17
2023-04-15T15:59:36.095Z,1.58
2023-04-15T16:04:39.696Z,1.30
2023-04-15T16:09:42.988Z,1.25
2023-04-15T16:14:47.538Z,1.40
2023-04-15T16:19:58.706Z,0.97
2023-04-15T16:25:03.916Z,1.30
2023-04-15T16:30:09.326Z,1.13
2023-04-15T16:35:12.093Z,1.20
2023-04-15T16:40:15.166Z,1.10
2023-04-15T16:45:17.901Z,1.07
2023-04-15T16:50:20.343Z,1.27
2023-04-15T16:55:22.884Z,1.40
2023-04-15T17:00:25.392Z,0.93
2023-04-15T17:10:48.113Z,0.80
2023-04-15T17:15:50.906Z,1.00
2023-04-15T17:21:03.059Z,1.23
2023-04-15T17:26:06.468Z,0.80
2023-04-15T17:31:09.733Z,1.15
2023-04-15T17:36:35.232Z,0.80
2023-04-15T17:41:57.808Z,0.82
2023-04-15T17:47:39.804Z,1.07
2023-04-15T17:53:20.661Z,1.27
2023-04-15T17:58:44.117Z,0.80
2023-04-15T18:04:09.583Z,0.60
2023-04-15T18:09:50.873Z,1.02
2023-04-15T18:15:14.834Z,1.70
2023-04-15T18:20:37.380Z,0.82
2023-04-15T18:25:40.048Z,1.30
2023-04-15T18:30:44.288Z,1.10
2023-04-15T18:35:49.350Z,0.90
2023-04-15T18:40:52.853Z,1.10
2023-04-15T18:45:55.426Z,1.00
2023-04-15T18:50:58.736Z,0.82
2023-04-15T18:56:03.536Z,1.07
2023-04-15T19:01:11.968Z,0.82
2023-04-15T19:06:14.714Z,1.20
2023-04-15T19:11:20.787Z,1.30
2023-04-15T19:16:23.501Z,1.45
2023-04-15T19:21:26.404Z,1.20
2023-04-15T19:26:29.061Z,1.25
2023-04-15T19:31:31.875Z,1.30
2023-04-15T19:36:34.904Z,1.40
2023-04-15T19:41:39.034Z,1.08
2023-04-15T19:46:45.213Z,1.10
2023-04-15T19:51:51.051Z,1.58
2023-04-15T19:56:53.472Z,1.20
2023-04-15T20:01:56.190Z,0.90
2023-04-15T20:06:58.944Z,1.10
2023-04-15T20:12:46.978Z,1.10
2023-04-15T20:17:23.836Z,0.98
2023-04-15T20:22:26.600Z,1.00
2023-04-15T20:27:29.158Z,1.02
2023-04-15T20:32:36.145Z,1.02
2023-04-15T20:37:40.656Z,1.07
2023-04-15T20:42:44.022Z,1.15
2023-04-15T20:47:46.606Z,0.90
2023-04-15T20:52:49.209Z,1.33
2023-04-15T20:57:52.120Z,1.20
2023-04-15T21:03:13.147Z,1.03
2023-04-15T21:08:15.843Z,1.13
2023-04-15T21:13:18.383Z,1.37
2023-04-15T21:18:21.971Z,1.20
2023-04-15T21:23:24.614Z,1.23
2023-04-15T21:28:28.545Z,1.00
2023-04-15T21:33:31.216Z,1.30
2023-04-15T21:38:34.356Z,1.40
2023-04-15T21:43:39.894Z,0.88
2023-04-15T21:48:42.509Z,1.77
2023-04-15T21:53:45.171Z,1.50
2023-04-15T21:58:47.671Z,1.65
2023-04-15T22:03:50.624Z,1.53
2023-04-15T22:08:57.557Z,1.50
2023-04-15T22:14:14.204Z,1.73
2023-04-15T22:19:16.650Z,1.13
2023-04-15T22:24:38.229Z,1.50
2023-04-15T22:29:42.357Z,1.60
2023-04-15T22:34:45.099Z,1.67
2023-04-15T22:39:48.087Z,2.00
2023-04-15T22:44:51.735Z,2.20
2023-04-15T22:49:54.233Z,2.35
2023-04-15T22:54:56.711Z,2.50
2023-04-15T22:59:59.351Z,2.50
2023-04-15T23:05:03.237Z,3.10
2023-04-15T23:10:16.284Z,4.17
2023-04-15T23:15:39.714Z,3.30
2023-04-15T23:20:42.413Z,2.57
2023-04-15T23:25:44.997Z,3.10
2023-04-15T23:30:47.441Z,3.80
2023-04-15T23:35:50.538Z,3.50
2023-04-15T23:40:53.131Z,3.35
2023-04-15T23:45:58.063Z,3.93
2023-04-15T23:51:02.835Z,3.85
2023-04-15T23:56:05.797Z,4.10
